createdAt,value
2023-04-25T00:00:33.248Z,10.30
2023-04-25T00:03:01.828Z,10.30
2023-04-25T00:05:37.901Z,10.10
2023-04-25T00:08:08.896Z,10.00
2023-04-25T00:10:36.981Z,10.10
2023-04-25T00:13:05.435Z,10.30
2023-04-25T00:15:34.304Z,10.50
2023-04-25T00:18:03.018Z,10.50
2023-04-25T00:20:32.271Z,10.50
2023-04-25T00:23:01.058Z,10.40
2023-04-25T00:25:34.879Z,10.30
2023-04-25T00:28:03.108Z,10.30
2023-04-25T00:30:31.120Z,10.30
2023-04-25T00:33:00.055Z,10.20
2023-04-25T00:35:28.211Z,10.10
2023-04-25T00:37:57.841Z,10.00
2023-04-25T00:40:27.907Z,10.10
2023-04-25T00:42:57.276Z,10.30
2023-04-25T00:45:31.204Z,9.90
2023-04-25T00:47:59.623Z,9.70
2023-04-25T00:50:28.162Z,9.80
2023-04-25T00:52:56.830Z,10.00
2023-04-25T00:55:25.151Z,10.20
2023-04-25T00:57:55.351Z,10.30
2023-04-25T01:00:25.106Z,10.00
2023-04-25T01:02:53.966Z,10.00
2023-04-25T01:05:23.193Z,10.20
2023-04-25T01:07:52.288Z,10.20
2023-04-25T01:10:20.731Z,10.10
2023-04-25T01:12:50.908Z,10.00
2023-04-25T01:15:19.023Z,9.90
2023-04-25T01:17:50.703Z,10.00
2023-04-25T01:20:19.089Z,10.00
2023-04-25T01:22:49.261Z,10.20
2023-04-25T01:25:19.762Z,10.30
2023-04-25T01:27:48.542Z,10.20
2023-04-25T01:30:17.618Z,10.50
2023-04-25T01:32:46.008Z,10.40
2023-04-25T01:35:15.248Z,10.50
2023-04-25T01:37:45.288Z,10.50
2023-04-25T01:40:16.033Z,10.40
2023-04-25T01:42:46.243Z,10.50
2023-04-25T01:45:15.275Z,10.70
2023-04-25T01:47:44.650Z,10.80
2023-04-25T01:50:13.701Z,11.00
2023-04-25T01:52:46.269Z,11.20
2023-04-25T01:55:16.907Z,11.20
2023-04-25T01:57:59.843Z,11.20
2023-04-25T02:00:45.062Z,10.80
2023-04-25T02:03:13.169Z,10.70
2023-04-25T02:05:42.342Z,10.80
2023-04-25T02:08:13.892Z,10.80
2023-04-25T02:10:43.966Z,11.00
2023-04-25T02:13:17.129Z,11.00
2023-04-25T02:16:22.105Z,11.00
2023-04-25T02:18:54.793Z,10.90
2023-04-25T02:21:22.796Z,11.00
2023-04-25T02:23:54.019Z,11.00
2023-04-25T02:26:26.124Z,11.10
2023-04-25T02:28:54.603Z,11.10
2023-04-25T02:31:22.719Z,11.10
2023-04-25T02:33:56.802Z,11.00
2023-04-25T02:36:26.005Z,11.00
2023-04-25T02:38:56.022Z,11.10
2023-04-25T02:41:26.290Z,11.10
2023-04-25T02:43:56.239Z,10.70
2023-04-25T02:46:37.759Z,10.80
2023-04-25T02:49:08.251Z,10.70
2023-04-25T02:51:37.581Z,10.50
2023-04-25T02:54:07.560Z,10.50
2023-04-25T02:56:42.366Z,10.50
2023-04-25T02:59:15.830Z,10.40
2023-04-25T03:01:44.683Z,10.60
2023-04-25T03:04:12.830Z,10.70
2023-04-25T03:06:41.296Z,10.40
2023-04-25T03:09:10.627Z,10.10
2023-04-25T03:11:40.970Z,10.20
2023-04-25T03:14:11.334Z,10.20
2023-04-25T03:16:39.494Z,9.90
2023-04-25T03:19:07.634Z,10.00
2023-04-25T03:21:37.783Z,9.80
2023-04-25T03:24:07.084Z,10.00
2023-04-25T03:26:36.017Z,10.10
2023-04-25T03:29:04.144Z,10.00
2023-04-25T03:31:34.182Z,9.70
2023-04-25T03:34:02.690Z,9.90
2023-04-25T03:36:31.903Z,10.10
2023-04-25T03:39:02.157Z,10.30
2023-04-25T03:41:33.991Z,10.60
2023-04-25T03:44:06.351Z,10.40
2023-04-25T03:46:36.829Z,10.30
2023-04-25T03:49:05.345Z,10.30
2023-04-25T03:51:53.139Z,10.50
2023-04-25T03:54:21.665Z,10.50
2023-04-25T03:57:15.752Z,10.70
2023-04-25T03:59:45.458Z,10.80
2023-04-25T04:02:17.696Z,10.90
2023-04-25T04:04:47.669Z,10.90
2023-04-25T04:07:16.699Z,10.80
2023-04-25T04:09:48.338Z,10.90
2023-04-25T04:12:24.035Z,11.00
2023-04-25T04:14:54.009Z,11.10
2023-04-25T04:17:24.378Z,10.90
2023-04-25T04:19:53.506Z,9.50
2023-04-25T04:22:23.006Z,8.50
2023-04-25T04:24:55.002Z,8.00
2023-04-25T04:27:45.979Z,7.80
2023-04-25T04:30:26.884Z,7.90
2023-04-25T04:33:02.702Z,8.30
2023-04-25T04:35:32.157Z,8.80
2023-04-25T04:38:00.398Z,9.30
2023-04-25T04:40:34.473Z,9.60
2023-04-25T04:43:14.636Z,9.90
2023-04-25T04:46:05.000Z,9.90
2023-04-25T04:48:43.598Z,10.00
2023-04-25T04:51:36.049Z,10.10
2023-04-25T04:54:26.581Z,10.10
2023-04-25T04:57:17.816Z,10.10
2023-04-25T05:00:08.286Z,10.30
2023-04-25T05:02:58.939Z,10.50
2023-04-25T05:05:51.397Z,10.70
2023-04-25T05:08:45.700Z,10.80
2023-04-25T05:11:27.783Z,10.80
2023-04-25T05:14:07.413Z,10.90
2023-04-25T05:16:54.074Z,11.00
2023-04-25T05:19:45.029Z,10.90
2023-04-25T05:22:38.301Z,11.00
2023-04-25T05:25:28.365Z,11.10
2023-04-25T05:28:02.085Z,11.10
2023-04-25T05:30:50.481Z,11.10
2023-04-25T05:33:22.969Z,10.90
2023-04-25T05:35:52.543Z,10.80
2023-04-25T05:38:22.460Z,10.70
2023-04-25T05:41:09.171Z,10.80
2023-04-25T05:43:58.148Z,10.70
2023-04-25T05:47:06.807Z,10.80
2023-04-25T05:49:56.045Z,10.80
2023-04-25T05:53:00.716Z,10.80
2023-04-25T05:55:36.512Z,10.90
2023-04-25T05:58:19.276Z,10.90
2023-04-25T06:00:47.389Z,11.10
2023-04-25T06:03:19.758Z,11.10
2023-04-25T06:05:50.917Z,11.00
2023-04-25T06:08:19.012Z,11.10
2023-04-25T06:10:48.887Z,11.30
2023-04-25T06:13:17.893Z,11.30
2023-04-25T06:15:46.522Z,11.20
2023-04-25T06:18:14.592Z,11.20
2023-04-25T06:20:44.066Z,11.10
2023-04-25T06:23:13.968Z,10.90
2023-04-25T06:26:04.775Z,10.80
2023-04-25T06:28:34.851Z,10.90
2023-04-25T06:31:03.575Z,10.60
2023-04-25T06:33:31.752Z,10.80
2023-04-25T06:36:00.779Z,11.00
2023-04-25T06:38:33.507Z,10.70
2023-04-25T06:41:04.032Z,10.70
2023-04-25T06:43:36.514Z,10.50
2023-04-25T06:46:07.194Z,10.50
2023-04-25T06:48:43.582Z,10.40
2023-04-25T06:51:14.690Z,10.00
2023-04-25T06:53:43.774Z,9.50
2023-04-25T06:56:22.296Z,9.20
2023-04-25T06:59:01.311Z,9.10
2023-04-25T07:01:41.120Z,9.30
2023-04-25T07:04:18.103Z,9.30
2023-04-25T07:06:56.767Z,9.20
2023-04-25T07:09:34.802Z,9.50
2023-04-25T07:12:05.625Z,9.40
2023-04-25T07:14:33.819Z,9.30
2023-04-25T07:17:02.236Z,9.30
2023-04-25T07:19:36.653Z,9.30
2023-04-25T07:22:08.074Z,9.20
2023-04-25T07:24:41.325Z,9.40
2023-04-25T07:27:12.643Z,9.80
2023-04-25T07:29:49.752Z,9.50
2023-04-25T07:32:17.850Z,9.30
2023-04-25T07:34:46.338Z,9.30
2023-04-25T07:37:16.690Z,9.20
2023-04-25T07:39:59.757Z,9.20
2023-04-25T07:42:30.116Z,9.40
2023-04-25T07:45:00.132Z,9.10
2023-04-25T07:47:28.654Z,9.00
2023-04-25T07:49:58.142Z,9.40
2023-04-25T07:52:26.856Z,9.20
2023-04-25T07:55:03.664Z,9.60
2023-04-25T07:57:44.192Z,9.60
2023-04-25T08:00:16.357Z,9.40
2023-04-25T08:02:51.975Z,9.30
2023-04-25T08:05:22.817Z,9.30
2023-04-25T08:07:59.128Z,9.30
2023-04-25T08:10:29.334Z,9.10
2023-04-25T08:13:02.156Z,9.00
2023-04-25T08:15:31.146Z,9.10
2023-04-25T08:18:00.970Z,9.40
2023-04-25T08:20:29.450Z,9.40
2023-04-25T08:23:01.183Z,9.50
2023-04-25T08:25:41.494Z,9.50
2023-04-25T08:28:14.126Z,9.40
2023-04-25T08:30:43.179Z,9.70
2023-04-25T08:33:14.626Z,9.80
2023-04-25T08:36:03.246Z,9.80
2023-04-25T08:38:33.025Z,9.70
2023-04-25T08:41:03.305Z,9.50
2023-04-25T08:43:32.955Z,9.60
2023-04-25T08:46:07.505Z,9.80
2023-04-25T08:48:55.023Z,9.80
2023-04-25T08:51:28.942Z,10.00
2023-04-25T08:54:35.005Z,9.90
2023-04-25T08:56:52.095Z,9.70
2023-04-25T08:59:23.723Z,10.10
2023-04-25T09:01:52.958Z,10.20
2023-04-25T09:04:23.644Z,10.00
2023-04-25T09:06:54.173Z,10.20
2023-04-25T09:09:24.697Z,10.30
2023-04-25T09:11:58.170Z,10.30
2023-04-25T09:14:29.025Z,10.30
2023-04-25T09:17:09.180Z,10.30
2023-04-25T09:19:46.742Z,10.40
2023-04-25T09:22:25.148Z,10.40
2023-04-25T09:24:54.129Z,10.60
2023-04-25T09:27:28.440Z,10.70
2023-04-25T09:30:09.306Z,10.70
2023-04-25T09:33:07.884Z,10.40
2023-04-25T09:35:41.388Z,10.40
2023-04-25T09:38:20.044Z,10.50
2023-04-25T09:41:02.015Z,10.70
2023-04-25T09:43:41.846Z,10.50
2023-04-25T09:46:39.150Z,10.70
2023-04-25T09:49:17.191Z,10.50
2023-04-25T09:51:58.121Z,10.40
2023-04-25T09:54:40.051Z,10.60
2023-04-25T09:57:18.134Z,10.40
2023-04-25T09:59:50.194Z,10.30
2023-04-25T10:02:21.615Z,9.90
2023-04-25T10:04:56.260Z,10.00
2023-04-25T10:07:42.297Z,10.10
2023-04-25T10:10:16.855Z,10.10
2023-04-25T10:12:46.405Z,10.20
2023-04-25T10:15:15.719Z,10.30
2023-04-25T10:17:46.926Z,10.60
2023-04-25T10:20:15.389Z,10.80
2023-04-25T10:22:46.539Z,11.00
2023-04-25T10:25:16.512Z,11.10
2023-04-25T10:27:45.177Z,11.30
2023-04-25T10:30:17.479Z,11.40
2023-04-25T10:32:50.768Z,11.30
2023-04-25T10:35:21.718Z,11.30
2023-04-25T10:38:07.444Z,11.50
2023-04-25T10:40:40.357Z,12.00
2023-04-25T10:43:37.483Z,12.10
2023-04-25T10:46:17.297Z,11.90
2023-04-25T10:48:54.129Z,11.50
2023-04-25T10:51:34.551Z,11.20
2023-04-25T10:54:09.737Z,11.10
2023-04-25T10:56:40.759Z,11.30
2023-04-25T10:59:11.087Z,11.20
2023-04-25T11:01:43.863Z,11.00
2023-04-25T11:04:27.564Z,10.80
2023-04-25T11:07:09.238Z,10.50
2023-04-25T11:09:39.895Z,10.40
2023-04-25T11:12:13.184Z,10.40
2023-04-25T11:14:42.750Z,10.40
2023-04-25T11:17:13.251Z,10.30
2023-04-25T11:19:43.130Z,9.90
2023-04-25T11:22:12.884Z,9.60
2023-04-25T11:24:42.256Z,9.50
2023-04-25T11:27:11.039Z,9.60
2023-04-25T11:29:39.574Z,9.50
2023-04-25T11:32:08.296Z,9.50
2023-04-25T11:34:36.686Z,9.60
2023-04-25T11:37:10.354Z,9.40
2023-04-25T11:39:38.378Z,9.40
2023-04-25T11:42:13.555Z,9.30
2023-04-25T11:44:45.186Z,9.30
2023-04-25T11:47:13.188Z,9.50
2023-04-25T11:49:41.811Z,9.80
2023-04-25T11:52:12.095Z,10.00
2023-04-25T11:54:41.320Z,10.20
2023-04-25T11:57:09.833Z,10.40
2023-04-25T11:59:37.908Z,10.60
2023-04-25T12:02:07.926Z,10.50
2023-04-25T12:04:36.792Z,10.60
2023-04-25T12:07:05.313Z,10.70
2023-04-25T12:09:36.187Z,10.80
2023-04-25T12:12:04.694Z,10.90
2023-04-25T12:14:36.388Z,10.90
2023-04-25T12:17:09.460Z,11.10
2023-04-25T12:19:42.403Z,11.20
2023-04-25T12:22:22.438Z,11.30
2023-04-25T12:24:55.419Z,11.40
2023-04-25T12:27:24.036Z,11.60
2023-04-25T12:30:02.709Z,11.80
2023-04-25T12:32:34.182Z,11.70
2023-04-25T12:35:02.270Z,11.40
2023-04-25T12:37:31.485Z,11.60
2023-04-25T12:40:08.667Z,11.90
2023-04-25T12:42:36.793Z,12.00
2023-04-25T12:45:08.004Z,12.20
2023-04-25T12:47:36.193Z,12.00
2023-04-25T12:50:05.507Z,12.20
2023-04-25T12:52:35.465Z,12.00
2023-04-25T12:55:05.098Z,11.80
2023-04-25T12:57:33.160Z,11.70
2023-04-25T13:00:02.099Z,11.80
2023-04-25T13:02:32.466Z,11.70
2023-04-25T13:05:01.535Z,11.50
2023-04-25T13:07:30.036Z,11.20
2023-04-25T13:09:58.584Z,11.00
2023-04-25T13:12:28.104Z,11.10
2023-04-25T13:14:56.566Z,11.20
2023-04-25T13:17:26.854Z,11.10
2023-04-25T13:19:57.379Z,10.90
2023-04-25T13:22:25.893Z,11.00
2023-04-25T13:24:53.914Z,10.90
2023-04-25T13:27:24.409Z,11.20
2023-04-25T13:29:52.413Z,11.40
2023-04-25T13:32:21.028Z,11.30
2023-04-25T13:34:49.068Z,11.50
2023-04-25T13:37:19.566Z,11.50
2023-04-25T13:39:47.595Z,11.20
2023-04-25T13:42:19.151Z,11.30
2023-04-25T13:44:50.639Z,11.60
2023-04-25T13:47:18.732Z,11.70
2023-04-25T13:49:47.739Z,11.70
2023-04-25T13:52:15.730Z,11.60
2023-04-25T13:54:46.045Z,11.70
2023-04-25T13:57:14.397Z,11.50
2023-04-25T13:59:43.287Z,11.50
2023-04-25T14:02:12.152Z,11.30
2023-04-25T14:04:40.384Z,11.30
2023-04-25T14:07:12.219Z,11.50
2023-04-25T14:09:40.322Z,11.50
2023-04-25T14:12:10.207Z,11.40
2023-04-25T14:14:38.448Z,11.50
2023-04-25T14:17:09.141Z,11.60
2023-04-25T14:19:38.560Z,11.80
2023-04-25T14:22:07.553Z,11.90
2023-04-25T14:24:35.665Z,12.10
2023-04-25T14:27:04.249Z,12.20
2023-04-25T14:29:33.673Z,12.20
2023-04-25T14:32:01.680Z,12.30
2023-04-25T14:34:30.370Z,12.30
2023-04-25T14:36:58.667Z,12.30
2023-04-25T14:39:27.569Z,12.60
2023-04-25T14:41:55.578Z,12.70
2023-04-25T14:44:24.476Z,12.90
2023-04-25T14:46:53.981Z,13.20
2023-04-25T14:49:23.178Z,13.30
2023-04-25T14:51:53.430Z,13.60
2023-04-25T14:54:23.384Z,13.40
2023-04-25T14:56:52.801Z,13.00
2023-04-25T14:59:21.526Z,12.80
2023-04-25T15:01:50.559Z,12.80
2023-04-25T15:04:19.987Z,12.60
2023-04-25T15:06:50.137Z,12.40
2023-04-25T15:09:19.304Z,12.70
2023-04-25T15:11:48.941Z,12.40
2023-04-25T15:14:16.993Z,12.40
2023-04-25T15:16:46.085Z,11.90
2023-04-25T15:19:15.081Z,11.50
2023-04-25T15:21:44.488Z,11.40
2023-04-25T15:24:13.451Z,11.30
2023-04-25T15:26:41.572Z,11.40
2023-04-25T15:29:14.201Z,11.70
2023-04-25T15:31:42.285Z,11.60
2023-04-25T15:34:12.632Z,11.50
2023-04-25T15:36:40.734Z,11.40
2023-04-25T15:39:11.295Z,11.50
2023-04-25T15:41:39.426Z,11.40
2023-04-25T15:44:11.278Z,11.70
2023-04-25T15:46:40.583Z,12.00
2023-04-25T15:49:10.293Z,12.20
2023-04-25T15:51:38.340Z,11.70
2023-04-25T15:54:06.987Z,11.80
2023-04-25T15:56:36.919Z,11.70
2023-04-25T15:59:05.138Z,11.80
2023-04-25T16:01:35.245Z,11.70
2023-04-25T16:04:03.591Z,11.70
2023-04-25T16:06:32.603Z,11.50
2023-04-25T16:09:08.545Z,11.40
2023-04-25T16:11:38.436Z,11.70
2023-04-25T16:14:06.634Z,11.70
2023-04-25T16:16:34.821Z,11.40
2023-04-25T16:19:03.862Z,11.30
2023-04-25T16:21:32.098Z,11.20
2023-04-25T16:24:01.059Z,11.20
2023-04-25T16:26:29.151Z,11.00
2023-04-25T16:29:00.591Z,10.90
2023-04-25T16:31:29.507Z,10.90
2023-04-25T16:33:57.781Z,10.70
2023-04-25T16:36:26.291Z,10.70
2023-04-25T16:38:55.041Z,10.80
2023-04-25T16:41:23.110Z,10.80
2023-04-25T16:43:52.214Z,10.70
2023-04-25T16:46:24.522Z,10.80
2023-04-25T16:48:52.791Z,10.90
2023-04-25T16:51:24.887Z,11.00
2023-04-25T16:53:54.207Z,10.90
2023-04-25T16:56:25.558Z,11.00
2023-04-25T16:58:54.023Z,10.90
2023-04-25T17:01:24.554Z,10.90
2023-04-25T17:03:52.778Z,10.90
2023-04-25T17:06:22.646Z,10.80
2023-04-25T17:08:50.949Z,10.80
2023-04-25T17:11:20.542Z,10.70
2023-04-25T17:13:48.564Z,10.90
2023-04-25T17:16:23.907Z,10.80
2023-04-25T17:18:53.621Z,10.90
2023-04-25T17:21:23.269Z,10.80
2023-04-25T17:23:51.450Z,10.80
2023-04-25T17:26:20.011Z,11.10
2023-04-25T17:28:50.013Z,11.10
2023-04-25T17:31:19.234Z,10.90
2023-04-25T17:33:47.502Z,11.20
2023-04-25T17:36:17.136Z,11.30
2023-04-25T17:38:45.223Z,11.20
2023-04-25T17:41:15.989Z,11.40
2023-04-25T17:43:45.233Z,11.50
2023-04-25T17:46:15.747Z,11.40
2023-04-25T17:48:45.766Z,11.10
2023-04-25T17:51:13.811Z,11.20
2023-04-25T17:53:44.193Z,11.00
2023-04-25T17:56:25.344Z,11.10
2023-04-25T17:58:56.511Z,11.00
2023-04-25T18:01:26.247Z,10.90
2023-04-25T18:03:54.439Z,11.00
2023-04-25T18:06:23.568Z,11.30
2023-04-25T18:08:53.230Z,11.10
2023-04-25T18:11:26.914Z,10.70
2023-04-25T18:13:55.423Z,10.60
2023-04-25T18:16:24.001Z,10.40
2023-04-25T18:18:53.793Z,10.30
2023-04-25T18:21:23.278Z,10.30
2023-04-25T18:23:52.974Z,10.30
2023-04-25T18:26:21.252Z,10.40
2023-04-25T18:28:50.453Z,10.20
2023-04-25T18:31:24.988Z,10.10
2023-04-25T18:33:54.184Z,10.20
2023-04-25T18:36:22.465Z,10.10
2023-04-25T18:38:56.637Z,10.10
2023-04-25T18:41:51.880Z,10.20
2023-04-25T18:44:18.290Z,10.20
2023-04-25T18:46:47.111Z,10.20
2023-04-25T18:49:16.974Z,10.20
2023-04-25T18:51:45.872Z,10.40
2023-04-25T18:54:17.838Z,10.40
2023-04-25T18:56:46.716Z,10.70
2023-04-25T18:59:15.456Z,10.40
2023-04-25T19:01:44.331Z,10.50
2023-04-25T19:04:12.526Z,10.50
2023-04-25T19:06:41.677Z,10.60
2023-04-25T19:09:10.196Z,10.70
2023-04-25T19:11:40.299Z,10.80
2023-04-25T19:14:10.345Z,11.10
2023-04-25T19:16:40.006Z,11.20
2023-04-25T19:19:09.977Z,11.50
2023-04-25T19:21:38.449Z,11.60
2023-04-25T19:24:08.726Z,11.60
2023-04-25T19:26:36.853Z,11.70
2023-04-25T19:29:09.534Z,11.70
2023-04-25T19:31:39.984Z,11.90
2023-04-25T19:34:09.703Z,11.80
2023-04-25T19:36:39.644Z,11.90
2023-04-25T19:39:09.341Z,12.00
2023-04-25T19:41:38.679Z,11.90
2023-04-25T19:44:10.010Z,11.70
2023-04-25T19:46:39.693Z,11.40
2023-04-25T19:49:08.197Z,10.70
2023-04-25T19:51:39.379Z,10.80
2023-04-25T19:54:07.613Z,10.60
2023-04-25T19:56:36.559Z,10.40
2023-04-25T19:59:04.592Z,10.30
2023-04-25T20:01:34.932Z,10.20
2023-04-25T20:04:03.100Z,9.80
2023-04-25T20:06:31.228Z,9.70
2023-04-25T20:08:59.345Z,9.70
2023-04-25T20:11:29.557Z,9.60
2023-04-25T20:13:58.400Z,9.60
2023-04-25T20:16:26.577Z,9.30
2023-04-25T20:18:57.850Z,9.20
2023-04-25T20:21:27.377Z,9.30
2023-04-25T20:24:01.698Z,9.20
2023-04-25T20:26:33.691Z,9.60
2023-04-25T20:29:04.403Z,9.50
2023-04-25T20:31:32.613Z,9.50
2023-04-25T20:34:02.014Z,9.60
2023-04-25T20:36:31.963Z,9.50
2023-04-25T20:39:02.447Z,9.70
2023-04-25T20:41:33.978Z,9.70
2023-04-25T20:44:02.896Z,9.70
2023-04-25T20:46:31.460Z,9.80
2023-04-25T20:49:05.114Z,10.00
2023-04-25T20:51:33.222Z,10.00
2023-04-25T20:54:03.728Z,10.10
2023-04-25T20:56:33.466Z,10.40
2023-04-25T20:59:02.699Z,10.70
2023-04-25T21:01:30.769Z,10.80
2023-04-25T21:03:59.578Z,11.00
2023-04-25T21:06:29.902Z,11.10
2023-04-25T21:08:58.946Z,11.30
2023-04-25T21:11:29.015Z,11.30
2023-04-25T21:13:58.364Z,11.30
2023-04-25T21:16:26.590Z,11.50
2023-04-25T21:18:55.130Z,11.60
2023-04-25T21:21:24.047Z,11.80
2023-04-25T21:23:53.528Z,11.80
2023-04-25T21:26:22.587Z,11.90
2023-04-25T21:28:52.510Z,12.00
2023-04-25T21:31:21.592Z,11.90
2023-04-25T21:33:50.100Z,11.80
2023-04-25T21:36:18.709Z,12.00
2023-04-25T21:38:46.753Z,12.00
2023-04-25T21:41:19.574Z,12.00
2023-04-25T21:43:48.297Z,12.00
2023-04-25T21:46:23.520Z,12.00
2023-04-25T21:48:53.687Z,12.00
2023-04-25T21:51:23.370Z,12.10
2023-04-25T21:53:51.437Z,12.00
2023-04-25T21:56:20.929Z,11.80
2023-04-25T21:58:50.899Z,11.80
2023-04-25T22:01:19.691Z,11.80
2023-04-25T22:03:48.951Z,11.60
2023-04-25T22:06:18.030Z,11.80
2023-04-25T22:08:47.228Z,11.90
2023-04-25T22:11:15.724Z,11.90
2023-04-25T22:13:47.452Z,11.80
2023-04-25T22:16:15.525Z,11.90
2023-04-25T22:18:45.962Z,11.90
2023-04-25T22:21:15.376Z,11.90
2023-04-25T22:23:43.798Z,11.70
2023-04-25T22:26:12.377Z,11.60
2023-04-25T22:28:41.237Z,11.60
2023-04-25T22:31:11.790Z,11.60
2023-04-25T22:33:41.377Z,11.50
2023-04-25T22:36:10.319Z,11.50
2023-04-25T22:38:40.614Z,11.30
2023-04-25T22:41:10.256Z,11.20
2023-04-25T22:43:39.641Z,11.20
2023-04-25T22:46:08.288Z,10.90
2023-04-25T22:48:39.073Z,10.90
2023-04-25T22:51:07.590Z,11.00
2023-04-25T22:53:37.403Z,11.00
2023-04-25T22:56:06.331Z,11.10
2023-04-25T22:58:35.439Z,11.20
2023-04-25T23:01:07.058Z,11.30
2023-04-25T23:03:35.501Z,11.30
2023-04-25T23:06:06.514Z,11.20
2023-04-25T23:08:35.160Z,11.30
2023-04-25T23:11:08.051Z,11.30
2023-04-25T23:13:36.996Z,11.40
2023-04-25T23:16:09.730Z,11.40
2023-04-25T23:18:38.001Z,11.40
2023-04-25T23:21:08.906Z,11.30
2023-04-25T23:23:41.414Z,11.10
2023-04-25T23:26:10.112Z,11.00
2023-04-25T23:28:41.624Z,10.60
2023-04-25T23:31:13.698Z,10.60
2023-04-25T23:33:43.094Z,10.50
2023-04-25T23:36:21.617Z,10.60
2023-04-25T23:38:52.767Z,10.50
2023-04-25T23:41:21.080Z,10.50
2023-04-25T23:43:49.114Z,10.50
2023-04-25T23:46:19.281Z,10.40
2023-04-25T23:48:47.532Z,10.60
2023-04-25T23:51:15.518Z,10.50
2023-04-25T23:53:45.697Z,10.40
2023-04-25T23:56:13.726Z,10.30
2023-04-25T23:58:43.441Z,10.30
